Time;durP1;ratioP1;P1;durP2;ratioP2;P2;SDS_P1;SDS_P2;PMS_P1;PMS_P2;Temp;Humidity;BMP_temperature;BMP_pressure;BME280_temperature;BME280_humidity;BME280_pressure;Samples;Min_cycle;Max_cycle;Signal;HPM_P1;HPM_P2
2022/01/27 00:00:38;;;;;;;7.07;6.43;;;22.00;43.00;;;;;;4975338;28;20611;-70
2022/01/27 00:03:21;;;;;;;7.15;6.45;;;22.00;43.00;;;;;;4975623;28;20284;-70
2022/01/27 00:06:02;;;;;;;6.72;6.13;;;22.10;43.00;;;;;;4975068;28;20264;-70
2022/01/27 00:08:39;;;;;;;8.65;7.75;;;22.10;43.60;;;;;;4976418;28;20204;-70
2022/01/27 00:11:12;;;;;;;8.15;7.35;;;22.10;43.00;;;;;;4975135;28;20170;-70
2022/01/27 00:16:40;;;;;;;6.35;5.75;;;22.10;43.00;;;;;;4966398;28;20205;-70
2022/01/27 00:19:06;;;;;;;6.53;5.93;;;22.10;43.10;;;;;;4975306;28;20264;-70
2022/01/27 00:21:32;;;;;;;6.88;6.18;;;22.10;43.00;;;;;;4958828;28;20235;-70
2022/01/27 00:23:58;;;;;;;6.53;5.93;;;22.10;43.00;;;;;;4974946;28;20182;-70
2022/01/27 00:26:25;;;;;;;6.97;6.38;;;22.00;42.90;;;;;;4991091;28;20192;-70
2022/01/27 00:28:51;;;;;;;7.40;6.70;;;22.00;42.80;;;;;;4975156;28;20268;-70
2022/01/27 00:31:20;;;;;;;6.53;5.93;;;22.10;42.90;;;;;;4958822;28;20190;-70
2022/01/27 00:33:48;;;;;;;7.07;6.45;;;22.00;42.80;;;;;;4958909;28;20218;-70
2022/01/27 00:36:14;;;;;;;7.20;6.53;;;22.00;42.80;;;;;;4958624;28;20201;-70
2022/01/27 00:38:40;;;;;;;7.80;7.10;;;22.00;42.80;;;;;;4974778;28;20229;-70
2022/01/27 00:41:06;;;;;;;7.63;6.82;;;22.00;42.80;;;;;;4958496;28;20186;-70
2022/01/27 00:43:32;;;;;;;7.63;6.93;;;22.00;42.80;;;;;;4974650;28;20217;-70
2022/01/27 00:45:58;;;;;;;8.38;7.57;;;22.00;42.70;;;;;;4990483;28;20217;-70
2022/01/27 00:48:24;;;;;;;7.65;7.00;;;22.00;42.70;;;;;;4974472;28;20563;-70
2022/01/27 00:51:00;;;;;;;8.00;7.20;;;22.00;42.70;;;;;;4974752;28;20193;-70
2022/01/27 00:53:35;;;;;;;7.18;6.50;;;22.00;42.70;;;;;;4974601;28;20208;-70
2022/01/27 00:56:14;;;;;;;6.63;6.03;;;22.00;42.70;;;;;;4974088;28;20209;-70
2022/01/27 01:01:12;;;;;;;6.80;6.20;;;22.00;42.80;;;;;;4975581;28;20204;-70
2022/01/27 01:03:42;;;;;;;6.30;5.70;;;22.00;42.70;;;;;;4974377;28;20184;-70
2022/01/27 01:06:23;;;;;;;6.50;5.90;;;22.00;42.70;;;;;;4973513;28;20216;-71
2022/01/27 01:11:42;;;;;;;6.60;6.00;;;22.00;42.70;;;;;;4990334;28;20194;-70
2022/01/27 01:21:56;;;;;;;7.28;6.57;;;22.00;42.60;;;;;;4958772;28;20220;-71
2022/01/27 01:35:26;;;;;;;7.93;7.13;;;22.00;42.50;;;;;;4957056;28;20228;-70
2022/01/27 01:37:52;;;;;;;6.40;5.90;;;22.00;42.50;;;;;;4941484;28;20192;-71
2022/01/27 01:40:19;;;;;;;7.35;6.75;;;22.00;42.40;;;;;;4957469;28;20196;-69
2022/01/27 01:42:45;;;;;;;6.65;6.05;;;22.00;42.50;;;;;;4941498;28;20673;-70
2022/01/27 01:45:17;;;;;;;5.85;5.35;;;22.00;42.50;;;;;;4974284;28;20217;-71
2022/01/27 01:47:49;;;;;;;6.28;5.68;;;22.00;42.50;;;;;;4941796;28;20693;-70
2022/01/27 01:50:16;;;;;;;5.82;5.32;;;22.00;42.50;;;;;;4972352;28;20204;-70
2022/01/27 01:52:44;;;;;;;5.72;5.22;;;21.90;42.40;;;;;;4960563;28;20196;-70
2022/01/27 01:55:11;;;;;;;6.07;5.53;;;22.00;42.50;;;;;;4976174;28;20227;-70
2022/01/27 01:57:37;;;;;;;6.07;5.57;;;21.90;42.40;;;;;;4960291;28;20192;-70
2022/01/27 02:00:07;;;;;;;6.90;6.30;;;21.90;42.30;;;;;;4993713;28;20173;-70
2022/01/27 02:02:38;;;;;;;6.60;6.07;;;22.00;42.40;;;;;;4976940;28;20259;-70
2022/01/27 02:05:05;;;;;;;6.80;6.25;;;22.00;42.40;;;;;;4975897;28;20227;-70
2022/01/27 02:07:46;;;;;;;6.68;6.07;;;22.00;42.40;;;;;;4976243;28;20199;-70
2022/01/27 02:17:58;;;;;;;6.72;6.13;;;21.90;42.20;;;;;;4975831;28;20366;-70
2022/01/27 02:18:28;;;;;;;5.85;5.35;;;21.90;42.10;;;;;;4992410;28;20196;-70
2022/01/27 02:20:55;;;;;;;5.55;5.05;;;21.90;42.20;;;;;;4975982;28;20272;-70
2022/01/27 02:23:21;;;;;;;5.38;4.90;;;21.90;42.20;;;;;;4976055;28;20177;-70
2022/01/27 02:25:46;;;;;;;5.60;5.10;;;21.90;42.20;;;;;;4959881;28;20205;-70
2022/01/27 02:28:12;;;;;;;5.82;5.32;;;21.90;42.20;;;;;;4993227;28;20177;-70
2022/01/27 02:30:38;;;;;;;5.90;5.40;;;21.90;42.20;;;;;;4975862;28;20275;-70
2022/01/27 02:33:04;;;;;;;5.70;5.20;;;21.90;42.10;;;;;;4975853;28;20264;-70
2022/01/27 02:35:34;;;;;;;7.00;6.40;;;21.90;42.10;;;;;;4975554;28;20204;-70
2022/01/27 02:38:00;;;;;;;6.10;5.60;;;21.90;42.00;;;;;;4975585;28;20195;-70
2022/01/27 02:40:25;;;;;;;6.43;5.93;;;21.90;42.00;;;;;;4959665;28;20173;-70
2022/01/27 02:42:52;;;;;;;6.88;6.25;;;21.90;42.00;;;;;;4959732;28;20242;-70
2022/01/27 02:45:39;;;;;;;7.30;6.70;;;21.90;41.90;;;;;;4959288;28;20223;-70
2022/01/27 02:48:05;;;;;;;6.18;5.68;;;21.90;41.90;;;;;;4976018;28;20243;-70
2022/01/27 02:50:31;;;;;;;5.75;5.25;;;21.90;42.00;;;;;;4959527;28;20200;-70
2022/01/27 02:52:57;;;;;;;5.70;5.30;;;21.90;42.00;;;;;;4975788;28;20197;-71
2022/01/27 02:55:23;;;;;;;5.72;5.22;;;21.90;42.00;;;;;;4975340;28;20216;-70
2022/01/27 02:57:49;;;;;;;5.72;5.25;;;21.80;41.90;;;;;;4959731;28;20185;-70
2022/01/27 03:00:15;;;;;;;5.60;5.10;;;21.80;41.90;;;;;;4975912;28;20215;-70
2022/01/27 03:02:41;;;;;;;5.43;5.00;;;21.90;41.90;;;;;;4959425;28;20193;-71
2022/01/27 03:05:07;;;;;;;5.63;5.13;;;21.90;41.90;;;;;;4975279;28;20215;-70
2022/01/27 03:07:33;;;;;;;5.07;4.68;;;21.90;41.90;;;;;;4959559;28;20195;-70
2022/01/27 03:09:58;;;;;;;5.00;4.60;;;21.90;41.90;;;;;;4958624;28;20189;-70
2022/01/27 03:12:26;;;;;;;5.10;4.70;;;21.90;41.80;;;;;;4987023;28;20215;-71
2022/01/27 03:14:52;;;;;;;5.10;4.70;;;21.90;41.80;;;;;;5011975;28;20226;-70
2022/01/27 03:17:18;;;;;;;5.05;4.65;;;21.80;41.70;;;;;;4994822;28;20180;-70
2022/01/27 03:19:44;;;;;;;5.15;4.75;;;21.90;41.80;;;;;;5010441;28;20192;-70
2022/01/27 03:22:10;;;;;;;5.38;4.97;;;21.80;41.70;;;;;;4976258;28;20680;-70
2022/01/27 03:24:37;;;;;;;5.28;4.88;;;21.80;41.60;;;;;;4974863;28;20263;-70
2022/01/27 03:27:12;;;;;;;5.50;5.10;;;21.80;41.60;;;;;;4992624;28;20185;-71
2022/01/27 03:29:38;;;;;;;5.97;5.47;;;21.80;41.70;;;;;;4961640;28;20180;-70
2022/01/27 03:32:04;;;;;;;5.10;4.70;;;21.80;41.50;;;;;;4963223;28;20243;-70
2022/01/27 03:34:30;;;;;;;5.15;4.75;;;21.80;41.40;;;;;;4962839;28;20216;-70
2022/01/27 03:36:56;;;;;;;5.68;5.20;;;21.80;41.50;;;;;;4963124;28;20196;-70
2022/01/27 03:39:23;;;;;;;6.15;5.65;;;21.80;41.50;;;;;;4962800;28;20189;-70
2022/01/27 03:41:53;;;;;;;5.40;5.00;;;21.80;41.50;;;;;;4962761;28;20185;-70
2022/01/27 03:44:22;;;;;;;5.00;4.65;;;21.80;41.50;;;;;;4978620;28;20590;-69
2022/01/27 03:46:50;;;;;;;4.65;4.35;;;21.80;41.60;;;;;;4963007;28;20187;-70
2022/01/27 03:49:16;;;;;;;4.50;4.20;;;21.80;41.50;;;;;;4962913;28;20185;-70
2022/01/27 03:51:44;;;;;;;4.90;4.50;;;21.80;41.40;;;;;;4978979;28;20213;-70
2022/01/27 03:54:10;;;;;;;4.60;4.20;;;21.80;41.50;;;;;;4962761;28;20312;-70
2022/01/27 03:56:36;;;;;;;4.25;3.95;;;21.80;41.50;;;;;;4978548;28;20267;-70
2022/01/27 03:59:03;;;;;;;4.38;4.07;;;21.80;41.40;;;;;;4978766;28;20184;-70
2022/01/27 04:01:30;;;;;;;3.95;3.65;;;21.80;41.40;;;;;;4978725;28;20544;-70
2022/01/27 04:03:58;;;;;;;4.43;4.13;;;21.80;41.40;;;;;;4978462;28;20544;-70
2022/01/27 04:06:33;;;;;;;4.07;3.72;;;21.80;41.40;;;;;;4978691;28;20239;-70
2022/01/27 04:09:01;;;;;;;5.32;4.93;;;21.80;41.40;;;;;;4978542;28;20215;-70
2022/01/27 04:11:27;;;;;;;4.85;4.45;;;21.80;41.30;;;;;;4978284;28;20726;-70
2022/01/27 04:13:53;;;;;;;5.00;4.53;;;21.80;41.20;;;;;;4978322;28;20645;-70
2022/01/27 04:16:18;;;;;;;4.95;4.55;;;21.80;41.20;;;;;;4977831;28;20312;-70
2022/01/27 04:18:46;;;;;;;5.15;4.75;;;21.80;41.30;;;;;;4962453;28;20195;-70
2022/01/27 04:21:13;;;;;;;5.05;4.65;;;21.80;41.30;;;;;;4978313;28;20637;-70
2022/01/27 04:23:38;;;;;;;4.90;4.55;;;21.80;41.30;;;;;;4962052;28;20211;-69
2022/01/27 04:26:05;;;;;;;4.53;4.22;;;21.80;41.20;;;;;;4961615;28;20216;-70
2022/01/27 04:28:34;;;;;;;5.10;4.60;;;21.70;41.20;;;;;;4978432;28;20216;-70
2022/01/27 04:31:03;;;;;;;4.40;4.10;;;21.70;41.00;;;;;;4978053;28;20189;-69
2022/01/27 04:33:31;;;;;;;4.85;4.45;;;21.80;41.30;;;;;;4962094;28;22627;-70
2022/01/27 04:36:00;;;;;;;4.30;4.00;;;21.70;41.20;;;;;;4995099;28;20688;-71
2022/01/27 04:38:33;;;;;;;4.15;3.85;;;21.70;41.10;;;;;;4961893;28;20276;-70
2022/01/27 04:41:13;;;;;;;4.40;4.10;;;21.70;41.10;;;;;;4960753;28;20173;-70
2022/01/27 04:43:47;;;;;;;3.72;3.42;;;21.70;41.00;;;;;;4977974;28;20226;-70
2022/01/27 04:46:36;;;;;;;4.30;4.00;;;21.70;41.00;;;;;;4977333;28;20216;-70
2022/01/27 04:49:04;;;;;;;5.15;4.75;;;21.70;41.00;;;;;;4977919;28;20213;-70
2022/01/27 04:51:30;;;;;;;5.35;4.93;;;21.70;41.00;;;;;;4961610;28;20676;-71
2022/01/27 04:56:27;;;;;;;5.00;4.60;;;21.70;40.90;;;;;;4977707;28;20560;-70
2022/01/27 04:58:58;;;;;;;5.03;4.63;;;21.70;40.90;;;;;;4962029;28;20188;-70
2022/01/27 05:01:32;;;;;;;4.07;3.78;;;21.70;40.90;;;;;;4994662;28;20173;-71
2022/01/27 05:04:07;;;;;;;5.00;4.60;;;21.70;41.00;;;;;;4977580;28;20177;-70
2022/01/27 05:06:33;;;;;;;4.20;3.90;;;21.70;41.00;;;;;;4977119;28;20188;-70
2022/01/27 05:08:59;;;;;;;4.45;4.13;;;21.70;40.90;;;;;;4961179;28;20192;-70
2022/01/27 05:14:03;;;;;;;4.45;4.05;;;21.70;40.90;;;;;;4977176;28;20223;-70
2022/01/27 05:16:29;;;;;;;4.60;4.20;;;21.70;40.90;;;;;;4977410;28;20192;-70
2022/01/27 05:18:55;;;;;;;4.72;4.32;;;21.70;40.90;;;;;;4977114;28;20563;-70
2022/01/27 05:21:22;;;;;;;4.95;4.55;;;21.70;40.90;;;;;;4977429;28;20192;-70
2022/01/27 05:23:48;;;;;;;5.47;5.03;;;21.70;40.80;;;;;;4994958;28;20307;-71
2022/01/27 05:26:14;;;;;;;4.68;4.30;;;21.70;40.80;;;;;;4996544;28;20683;-70
2022/01/27 05:28:40;;;;;;;4.90;4.50;;;21.70;40.80;;;;;;5014223;28;20315;-69
2022/01/27 05:31:06;;;;;;;5.80;5.30;;;21.70;40.80;;;;;;4996440;28;20199;-69
2022/01/27 05:33:33;;;;;;;5.35;4.95;;;21.70;40.70;;;;;;4994932;28;20214;-70
2022/01/27 05:35:59;;;;;;;5.78;5.28;;;21.70;40.80;;;;;;4993190;28;20309;-69
2022/01/27 05:38:25;;;;;;;5.43;5.03;;;21.70;40.80;;;;;;4994070;28;20268;-69
2022/01/27 05:40:51;;;;;;;5.18;4.78;;;21.70;40.80;;;;;;4976705;28;20185;-70
2022/01/27 05:43:17;;;;;;;4.82;4.40;;;21.70;40.80;;;;;;4960429;28;20188;-71
2022/01/27 05:45:44;;;;;;;4.75;4.35;;;21.70;40.80;;;;;;4977668;28;20295;-70
2022/01/27 05:48:10;;;;;;;4.53;4.13;;;21.60;40.70;;;;;;4960896;28;20579;-70
2022/01/27 05:50:36;;;;;;;4.15;3.85;;;21.70;40.80;;;;;;4976729;28;20208;-70
2022/01/27 05:53:03;;;;;;;4.50;4.13;;;21.70;40.80;;;;;;4976332;28;20546;-70
2022/01/27 05:55:29;;;;;;;4.80;4.40;;;21.70;40.70;;;;;;4960008;28;20225;-70
2022/01/27 05:57:55;;;;;;;4.90;4.50;;;21.60;41.30;;;;;;4960491;28;20184;-70
2022/01/27 06:00:21;;;;;;;4.22;3.92;;;21.70;40.70;;;;;;5009088;28;20184;-69
2022/01/27 06:02:46;;;;;;;4.97;4.57;;;21.70;40.60;;;;;;4992851;28;20275;-70
2022/01/27 06:05:12;;;;;;;4.40;4.10;;;21.70;40.60;;;;;;4960074;28;20223;-70
2022/01/27 06:07:38;;;;;;;5.32;4.90;;;21.70;40.70;;;;;;4993504;28;20189;-70
2022/01/27 06:10:05;;;;;;;4.90;4.50;;;21.60;40.60;;;;;;4976374;28;20188;-70
2022/01/27 06:12:31;;;;;;;4.97;4.57;;;21.70;40.70;;;;;;4976233;28;20247;-70
2022/01/27 06:14:56;;;;;;;4.93;4.53;;;21.70;40.60;;;;;;4991934;28;20225;-70
2022/01/27 06:17:22;;;;;;;5.30;4.80;;;21.70;40.60;;;;;;4975908;28;20189;-70
2022/01/27 06:19:49;;;;;;;6.18;5.57;;;21.70;40.60;;;;;;4960195;28;20192;-71
2022/01/27 06:22:15;;;;;;;6.10;5.60;;;21.60;40.50;;;;;;4991519;28;20215;-70
2022/01/27 06:24:43;;;;;;;6.00;5.50;;;21.60;40.50;;;;;;4956415;28;20241;-69
2022/01/27 06:27:10;;;;;;;5.72;5.30;;;21.60;40.50;;;;;;4990533;28;20648;-70
2022/01/27 06:29:37;;;;;;;6.05;5.55;;;21.60;40.40;;;;;;4975945;28;20195;-70
2022/01/27 06:32:04;;;;;;;5.80;5.25;;;21.60;40.40;;;;;;4975981;28;20189;-70
2022/01/27 06:34:30;;;;;;;5.93;5.43;;;21.60;40.40;;;;;;4959694;28;20217;-70
2022/01/27 06:36:56;;;;;;;5.75;5.25;;;21.60;40.50;;;;;;4981587;28;20180;-71
2022/01/27 06:39:22;;;;;;;5.97;5.30;;;21.60;40.30;;;;;;4995217;28;20234;-71
2022/01/27 06:41:48;;;;;;;5.70;5.20;;;21.60;40.40;;;;;;5011722;28;20172;-71
2022/01/27 06:44:14;;;;;;;5.50;5.00;;;21.60;40.40;;;;;;4978728;28;20201;-69
2022/01/27 06:46:40;;;;;;;5.07;4.68;;;21.60;40.50;;;;;;4979077;28;20191;-70
2022/01/27 06:49:07;;;;;;;5.22;4.82;;;21.60;40.40;;;;;;4977452;28;20180;-71
2022/01/27 06:51:33;;;;;;;5.68;5.20;;;21.60;40.40;;;;;;4990247;28;20204;-71
2022/01/27 06:53:59;;;;;;;5.60;5.10;;;21.60;40.50;;;;;;4972171;28;20210;-70
2022/01/27 06:56:26;;;;;;;5.75;5.35;;;21.60;40.40;;;;;;4972516;28;20178;-70
2022/01/27 06:58:52;;;;;;;6.13;5.63;;;21.60;40.40;;;;;;4973630;28;20288;-71
2022/01/27 07:01:19;;;;;;;6.57;5.97;;;21.60;40.40;;;;;;4956543;28;20217;-70
2022/01/27 07:03:44;;;;;;;7.20;6.60;;;21.60;40.40;;;;;;4973306;28;20189;-70
2022/01/27 07:06:12;;;;;;;7.55;6.72;;;21.60;40.40;;;;;;4960147;28;20268;-70
2022/01/27 07:08:39;;;;;;;7.93;7.22;;;21.60;40.40;;;;;;4976315;28;20182;-70
2022/01/27 07:11:05;;;;;;;8.48;7.78;;;21.60;40.50;;;;;;5013404;28;20176;-70
2022/01/27 07:13:31;;;;;;;7.90;7.10;;;21.60;40.50;;;;;;4982616;28;20192;-70
2022/01/27 07:15:57;;;;;;;8.77;7.97;;;21.60;40.40;;;;;;4975705;28;20200;-70
2022/01/27 07:18:24;;;;;;;9.02;8.23;;;21.60;40.50;;;;;;4993067;28;20642;-70
2022/01/27 07:20:50;;;;;;;9.50;8.60;;;21.60;40.40;;;;;;4995371;28;20200;-70
2022/01/27 07:23:16;;;;;;;9.10;8.30;;;21.60;40.40;;;;;;4996539;28;20195;-70
2022/01/27 07:25:42;;;;;;;9.68;8.82;;;21.60;40.40;;;;;;4994839;28;20205;-70
2022/01/27 07:28:08;;;;;;;9.25;8.45;;;21.60;40.40;;;;;;4979245;28;20184;-70
2022/01/27 07:30:34;;;;;;;10.05;9.00;;;21.60;40.20;;;;;;4964835;28;20188;-70
2022/01/27 07:33:00;;;;;;;9.43;8.52;;;21.60;40.40;;;;;;4998717;28;20180;-70
2022/01/27 07:35:26;;;;;;;9.00;8.20;;;21.60;40.20;;;;;;4998101;28;20223;-70
2022/01/27 07:37:51;;;;;;;8.73;7.93;;;21.60;40.40;;;;;;4998177;28;20188;-70
2022/01/27 07:40:17;;;;;;;8.55;7.75;;;21.60;40.40;;;;;;4980373;28;20204;-70
2022/01/27 07:42:44;;;;;;;8.93;8.13;;;21.60;40.50;;;;;;4978664;28;20264;-71
2022/01/27 07:45:11;;;;;;;8.77;7.88;;;21.60;40.40;;;;;;4978906;28;20215;-70
2022/01/27 07:47:36;;;;;;;9.07;8.18;;;21.60;40.30;;;;;;4978209;28;20287;-70
2022/01/27 07:50:03;;;;;;;8.75;7.85;;;21.60;40.20;;;;;;4962733;28;20197;-70
2022/01/27 07:52:29;;;;;;;8.52;7.82;;;21.60;40.20;;;;;;4962530;28;20185;-70
2022/01/27 07:54:55;;;;;;;8.77;7.93;;;21.60;40.20;;;;;;4978264;28;20223;-71
2022/01/27 07:57:21;;;;;;;9.23;8.38;;;21.60;40.30;;;;;;4962274;28;20568;-70
2022/01/27 07:59:47;;;;;;;8.38;7.57;;;21.60;40.30;;;;;;4980162;28;20187;-70
2022/01/27 08:02:12;;;;;;;8.40;7.65;;;21.60;40.20;;;;;;4985812;28;20196;-70
2022/01/27 08:04:38;;;;;;;10.27;9.27;;;21.70;40.30;;;;;;5013363;28;20219;-70
2022/01/27 08:07:04;;;;;;;9.65;8.75;;;21.70;40.30;;;;;;4997790;28;20188;-70
2022/01/27 08:09:30;;;;;;;11.68;10.48;;;21.60;40.20;;;;;;4998139;28;20621;-70
2022/01/27 08:11:56;;;;;;;10.13;9.18;;;21.60;40.20;;;;;;4998100;28;20192;-70
2022/01/27 08:14:22;;;;;;;10.82;9.85;;;21.70;40.30;;;;;;4974965;28;20224;-69
2022/01/27 08:16:48;;;;;;;10.75;9.75;;;21.60;40.20;;;;;;4986216;28;20664;-70
2022/01/27 08:19:14;;;;;;;10.93;9.93;;;21.70;40.40;;;;;;4980348;28;20189;-69
2022/01/27 08:21:40;;;;;;;10.38;9.38;;;21.70;40.30;;;;;;4978502;28;20220;-70
2022/01/27 08:24:06;;;;;;;10.68;9.57;;;21.60;40.20;;;;;;4961768;28;20185;-69
2022/01/27 08:26:41;;;;;;;10.10;9.13;;;21.60;40.20;;;;;;4998736;28;20272;-71
2022/01/27 08:29:31;;;;;;;10.02;9.02;;;21.60;40.30;;;;;;4994385;28;20183;-70
2022/01/27 08:31:59;;;;;;;9.07;8.27;;;21.60;40.40;;;;;;4961913;28;20188;-71
2022/01/27 08:34:38;;;;;;;9.32;8.43;;;21.60;40.20;;;;;;4961728;28;20216;-70
2022/01/27 08:37:07;;;;;;;9.27;8.38;;;21.60;40.20;;;;;;4977732;28;20188;-71
2022/01/27 08:39:33;;;;;;;9.82;8.98;;;21.70;40.30;;;;;;4995199;28;20197;-71
2022/01/27 08:42:00;;;;;;;9.52;8.63;;;21.60;40.20;;;;;;4977607;28;20193;-69
2022/01/27 08:44:26;;;;;;;10.93;9.15;;;21.60;40.20;;;;;;4977223;28;20243;-69
2022/01/27 08:46:52;;;;;;;10.18;9.18;;;21.70;40.30;;;;;;4963459;28;20199;-70
2022/01/27 08:49:21;;;;;;;11.00;10.00;;;21.60;40.20;;;;;;4996988;28;20184;-71
2022/01/27 08:51:47;;;;;;;10.07;9.10;;;21.70;40.30;;;;;;4972036;28;20203;-70
2022/01/27 08:54:13;;;;;;;11.68;10.57;;;21.70;40.30;;;;;;4977052;28;20229;-69
2022/01/27 08:56:39;;;;;;;11.25;10.25;;;21.70;40.30;;;;;;4985217;28;20223;-70
2022/01/27 08:59:05;;;;;;;11.43;10.32;;;21.70;40.30;;;;;;4980763;28;20259;-70
2022/01/27 09:01:31;;;;;;;12.13;10.93;;;21.70;40.30;;;;;;4997008;28;20191;-70
2022/01/27 09:03:57;;;;;;;12.68;11.48;;;21.70;40.30;;;;;;4996034;28;20184;-70
2022/01/27 09:06:23;;;;;;;10.95;9.95;;;21.70;40.40;;;;;;4994421;28;20201;-69
2022/01/27 09:08:50;;;;;;;10.75;9.75;;;21.70;40.30;;;;;;4977355;28;20176;-70
2022/01/27 09:11:17;;;;;;;10.23;9.23;;;21.70;40.40;;;;;;4977427;28;20193;-70
2022/01/27 09:13:43;;;;;;;9.63;8.77;;;21.70;40.40;;;;;;4976872;28;20220;-70
2022/01/27 09:16:10;;;;;;;10.88;9.77;;;21.70;40.40;;;;;;4994354;28;20208;-70
2022/01/27 09:18:37;;;;;;;9.57;8.68;;;21.70;40.40;;;;;;4977052;28;20234;-70
2022/01/27 09:21:09;;;;;;;9.95;9.05;;;21.70;40.40;;;;;;4961140;28;20287;-70
2022/01/27 09:23:36;;;;;;;9.68;8.80;;;21.70;40.40;;;;;;4961364;28;20188;-71
2022/01/27 09:26:06;;;;;;;10.07;9.13;;;21.70;40.30;;;;;;4979166;28;20306;-69
2022/01/27 09:28:32;;;;;;;9.35;8.45;;;21.70;40.40;;;;;;4996480;28;20184;-70
2022/01/27 09:30:59;;;;;;;10.07;9.07;;;21.70;40.40;;;;;;4996685;28;20238;-70
2022/01/27 09:33:24;;;;;;;8.38;7.65;;;21.70;40.40;;;;;;4979986;28;20191;-71
2022/01/27 09:35:50;;;;;;;10.23;9.23;;;21.70;40.40;;;;;;4990301;28;20205;-70
2022/01/27 09:38:16;;;;;;;10.07;9.18;;;21.80;40.50;;;;;;4960848;28;20184;-70
2022/01/27 09:40:46;;;;;;;9.68;8.77;;;21.70;40.40;;;;;;4976697;28;20180;-70
2022/01/27 09:43:13;;;;;;;10.07;8.57;;;21.80;40.50;;;;;;4960550;28;20272;-70
2022/01/27 09:45:39;;;;;;;9.10;8.25;;;21.80;40.60;;;;;;4993192;28;20217;-71
2022/01/27 09:48:15;;;;;;;8.00;7.20;;;21.80;40.60;;;;;;4960784;28;20538;-70
2022/01/27 09:51:38;;;;;;;8.45;7.65;;;21.80;40.60;;;;;;4960862;28;20184;-70
2022/01/27 09:53:33;;;;;;;8.52;7.75;;;21.80;40.60;;;;;;4973825;28;20707;-70
2022/01/27 09:55:59;;;;;;;8.13;7.43;;;21.80;40.60;;;;;;4975570;28;20208;-71
2022/01/27 09:58:24;;;;;;;7.60;6.90;;;21.80;40.60;;;;;;4975944;28;20194;-70
2022/01/27 10:00:50;;;;;;;8.00;7.30;;;21.80;40.60;;;;;;4976025;28;20190;-72
2022/01/27 10:03:17;;;;;;;7.63;6.93;;;21.80;40.70;;;;;;4959703;28;20177;-70
2022/01/27 10:05:44;;;;;;;7.82;7.13;;;21.80;40.70;;;;;;4975928;28;20718;-69
2022/01/27 10:08:18;;;;;;;7.65;6.97;;;21.80;40.80;;;;;;4976112;28;20199;-71
2022/01/27 10:10:50;;;;;;;7.15;6.55;;;21.80;40.80;;;;;;4976228;28;20215;-70
2022/01/27 10:13:38;;;;;;;7.50;6.80;;;21.80;40.90;;;;;;4975990;28;20736;-70
2022/01/27 10:16:07;;;;;;;7.95;7.15;;;21.90;41.00;;;;;;4940451;28;20209;-70
2022/01/27 10:18:35;;;;;;;7.82;7.07;;;21.80;41.00;;;;;;4941187;28;20177;-70
2022/01/27 10:21:07;;;;;;;7.50;6.80;;;21.90;41.20;;;;;;4956725;28;20188;-70
2022/01/27 10:23:39;;;;;;;7.15;6.55;;;21.80;41.10;;;;;;4940681;28;20194;-70
2022/01/27 10:26:20;;;;;;;7.03;6.43;;;21.80;41.10;;;;;;4956582;28;20645;-70
2022/01/27 10:31:25;;;;;;;6.78;6.18;;;21.90;41.20;;;;;;4964059;28;20184;-69
2022/01/27 10:34:04;;;;;;;5.88;5.38;;;21.90;41.20;;;;;;4975289;28;20232;-70
2022/01/27 10:36:40;;;;;;;6.53;5.95;;;21.90;41.20;;;;;;4975286;28;20187;-70
2022/01/27 10:39:08;;;;;;;6.72;6.13;;;21.90;41.20;;;;;;4956690;28;20196;-70
2022/01/27 10:41:38;;;;;;;7.60;6.90;;;21.90;41.30;;;;;;4955965;28;20189;-70
2022/01/27 10:44:09;;;;;;;8.07;6.50;;;21.90;41.20;;;;;;4939987;28;20715;-70
2022/01/27 10:46:39;;;;;;;7.45;6.75;;;21.90;41.30;;;;;;4972467;28;20185;-70
2022/01/27 10:49:18;;;;;;;6.28;5.78;;;21.90;41.20;;;;;;4972452;28;20213;-70
2022/01/27 10:51:51;;;;;;;6.43;5.90;;;21.90;41.20;;;;;;4972713;28;20197;-70
2022/01/27 10:54:35;;;;;;;6.10;5.60;;;21.90;41.20;;;;;;4972222;28;20276;-69
2022/01/27 10:57:10;;;;;;;6.30;5.80;;;21.90;41.20;;;;;;4956439;28;20181;-70
2022/01/27 10:59:37;;;;;;;5.78;5.28;;;21.90;41.20;;;;;;4972798;28;20184;-70
2022/01/27 11:02:12;;;;;;;5.70;5.20;;;21.90;41.30;;;;;;4972480;28;20232;-70
2022/01/27 11:04:42;;;;;;;6.35;5.85;;;22.00;41.40;;;;;;4972284;28;20640;-70
2022/01/27 11:07:14;;;;;;;5.60;5.10;;;22.00;41.50;;;;;;4979405;28;20193;-70
2022/01/27 11:09:43;;;;;;;6.40;5.80;;;22.00;41.50;;;;;;4975435;28;20192;-70
2022/01/27 11:12:15;;;;;;;5.85;5.28;;;22.00;41.60;;;;;;4972638;28;20259;-69
2022/01/27 11:14:42;;;;;;;7.00;5.82;;;22.00;41.60;;;;;;4988005;28;20228;-69
2022/01/27 11:17:17;;;;;;;6.75;6.15;;;22.00;41.70;;;;;;4978054;28;20565;-69
2022/01/27 11:20:03;;;;;;;5.75;5.25;;;22.00;42.30;;;;;;4973439;28;20195;-69
2022/01/27 11:27:45;;;;;;;6.32;5.07;;;22.00;41.80;;;;;;4975342;28;20540;-71
2022/01/27 11:30:24;;;;;;;5.97;5.47;;;22.00;41.80;;;;;;4991519;28;20208;-72
2022/01/27 11:33:14;;;;;;;5.20;4.72;;;22.00;41.90;;;;;;4975683;28;20181;-70
2022/01/27 11:35:41;;;;;;;6.28;5.68;;;22.00;42.00;;;;;;4969841;28;20212;-70
2022/01/27 11:38:08;;;;;;;5.90;5.40;;;22.00;42.00;;;;;;4975490;28;20204;-70
2022/01/27 11:40:41;;;;;;;5.43;4.93;;;22.00;42.00;;;;;;4980191;28;20185;-70
2022/01/27 11:43:17;;;;;;;5.60;5.10;;;22.00;42.00;;;;;;4973248;28;20190;-70
2022/01/27 11:45:44;;;;;;;6.35;5.18;;;22.00;42.00;;;;;;4969771;28;20230;-70
2022/01/27 11:48:17;;;;;;;5.32;4.80;;;22.00;41.90;;;;;;4975379;28;20188;-71
2022/01/27 11:53:40;;;;;;;5.35;4.85;;;22.00;41.80;;;;;;5014746;28;20172;-70
2022/01/27 11:56:15;;;;;;;5.63;5.13;;;22.00;41.80;;;;;;4990260;28;20707;-70
2022/01/27 11:58:45;;;;;;;5.15;4.72;;;22.00;41.90;;;;;;4975053;28;20204;-70
2022/01/27 12:01:24;;;;;;;7.35;5.55;;;22.00;41.90;;;;;;4960847;28;20203;-71
2022/01/27 12:04:09;;;;;;;6.47;5.78;;;22.00;41.80;;;;;;4986278;28;20191;-70
2022/01/27 12:07:02;;;;;;;5.60;5.10;;;22.00;41.90;;;;;;5011735;28;20282;-70
2022/01/27 12:09:31;;;;;;;5.07;4.57;;;22.00;41.90;;;;;;5002823;28;20196;-70
2022/01/27 12:12:12;;;;;;;5.47;4.53;;;22.00;41.80;;;;;;4996497;28;20184;-71
2022/01/27 12:14:39;;;;;;;4.97;4.53;;;22.00;41.90;;;;;;4998910;28;20232;-70
2022/01/27 12:17:08;;;;;;;5.25;4.75;;;22.00;42.00;;;;;;4973386;28;20195;-70
2022/01/27 12:20:07;;;;;;;5.30;4.80;;;22.00;42.00;;;;;;4980486;28;20184;-69
2022/01/27 12:22:49;;;;;;;5.25;4.68;;;22.10;42.10;;;;;;5009643;28;20176;-69
2022/01/27 12:25:16;;;;;;;5.07;4.50;;;22.00;42.00;;;;;;4978168;28;20217;-70
2022/01/27 12:27:54;;;;;;;5.28;4.68;;;22.10;42.10;;;;;;4994391;28;20256;-71
2022/01/27 12:30:22;;;;;;;5.28;4.53;;;22.10;42.20;;;;;;4987362;28;20682;-70
2022/01/27 12:32:55;;;;;;;4.55;4.15;;;22.10;42.20;;;;;;5015053;28;20184;-70
2022/01/27 12:35:20;;;;;;;5.72;4.30;;;22.00;42.10;;;;;;4996883;28;20224;-69
2022/01/27 12:37:50;;;;;;;4.47;4.07;;;22.10;42.20;;;;;;4982146;28;20185;-70
2022/01/27 12:40:22;;;;;;;4.75;4.35;;;22.00;42.20;;;;;;4985793;28;20238;-70
2022/01/27 12:43:01;;;;;;;4.00;3.70;;;22.10;42.20;;;;;;4981091;28;20262;-70
2022/01/27 12:45:33;;;;;;;4.50;4.07;;;22.10;42.30;;;;;;4996964;28;20220;-70
2022/01/27 12:48:09;;;;;;;4.10;3.80;;;22.10;42.80;;;;;;4997303;28;20226;-70
2022/01/27 12:50:37;;;;;;;5.35;4.43;;;22.10;42.50;;;;;;5014732;28;20180;-69
2022/01/27 12:53:10;;;;;;;4.63;4.18;;;22.10;42.50;;;;;;4997288;28;20597;-70
2022/01/27 12:55:40;;;;;;;4.22;3.83;;;22.10;42.50;;;;;;4996862;28;20220;-70
2022/01/27 12:58:08;;;;;;;4.78;3.78;;;22.10;42.50;;;;;;4997325;28;20275;-70
2022/01/27 13:00:42;;;;;;;4.35;3.80;;;22.10;42.50;;;;;;4980985;28;20187;-71
2022/01/27 13:03:09;;;;;;;4.70;3.72;;;22.00;42.40;;;;;;4996257;28;20279;-70
2022/01/27 13:05:49;;;;;;;4.78;4.38;;;22.10;42.50;;;;;;4996991;28;20207;-70
2022/01/27 13:08:22;;;;;;;4.07;3.78;;;22.00;42.40;;;;;;4993502;28;20181;-70
2022/01/27 13:10:57;;;;;;;4.35;3.95;;;22.00;42.30;;;;;;4977467;28;20192;-70
2022/01/27 13:13:32;;;;;;;5.10;4.68;;;22.00;42.30;;;;;;4977402;28;20180;-70
2022/01/27 13:16:12;;;;;;;4.97;4.25;;;22.00;42.30;;;;;;4994406;28;20244;-70
2022/01/27 13:18:57;;;;;;;6.05;5.07;;;22.00;42.30;;;;;;4993859;28;20191;-70
2022/01/27 13:21:37;;;;;;;4.75;4.20;;;22.00;42.30;;;;;;4961410;28;20275;-70
2022/01/27 13:24:15;;;;;;;4.30;3.90;;;22.00;42.30;;;;;;4996506;28;20183;-69
2022/01/27 13:26:48;;;;;;;4.82;3.88;;;22.00;42.30;;;;;;4996588;28;20180;-69
2022/01/27 13:29:28;;;;;;;4.50;4.05;;;22.00;42.20;;;;;;4996690;28;20234;-70
2022/01/27 13:31:54;;;;;;;4.75;4.22;;;22.00;42.20;;;;;;5006636;28;20203;-69
2022/01/27 13:34:20;;;;;;;4.85;4.45;;;22.00;42.20;;;;;;4993764;28;20254;-70
2022/01/27 13:36:59;;;;;;;3.78;3.47;;;22.00;42.20;;;;;;4996048;28;20216;-70
2022/01/27 13:39:46;;;;;;;4.55;3.90;;;22.00;42.20;;;;;;4996406;28;20180;-70
2022/01/27 13:42:11;;;;;;;5.15;4.40;;;22.00;42.20;;;;;;4995182;28;20200;-70
2022/01/27 13:44:56;;;;;;;5.03;4.53;;;22.00;42.30;;;;;;4976340;28;20235;-70